createdAt,value
2018-11-05T00:01:50.434Z,15.38
2018-11-05T00:04:20.407Z,15.40
2018-11-05T00:06:50.602Z,15.45
2018-11-05T00:09:20.536Z,14.85
2018-11-05T00:11:52.049Z,15.75
2018-11-05T00:14:21.155Z,14.80
2018-11-05T00:16:51.010Z,15.10
2018-11-05T00:19:21.030Z,13.83
2018-11-05T00:21:50.994Z,14.58
2018-11-05T00:24:20.992Z,14.47
2018-11-05T00:26:51.049Z,14.20
2018-11-05T00:29:21.067Z,13.43
2018-11-05T00:31:51.297Z,14.58
2018-11-05T00:34:21.109Z,16.15
2018-11-05T00:36:51.859Z,14.90
2018-11-05T00:39:21.263Z,14.10
2018-11-05T00:41:51.336Z,14.90
2018-11-05T00:44:21.306Z,13.60
2018-11-05T00:46:51.283Z,12.53
2018-11-05T00:49:21.304Z,13.83
2018-11-05T00:51:51.398Z,12.88
2018-11-05T00:54:21.622Z,13.90
2018-11-05T00:56:51.432Z,13.62
2018-11-05T00:59:21.366Z,12.80
2018-11-05T01:06:48.347Z,11.80
2018-11-05T01:09:17.366Z,14.30
2018-11-05T01:11:46.531Z,13.80
2018-11-05T01:14:15.562Z,14.07
2018-11-05T01:16:44.723Z,12.60
2018-11-05T01:19:14.306Z,14.10
2018-11-05T01:21:43.358Z,13.70
2018-11-05T01:24:12.530Z,12.60
2018-11-05T01:26:41.638Z,13.70
2018-11-05T01:29:10.670Z,12.27
2018-11-05T01:31:39.831Z,12.58
2018-11-05T01:34:08.922Z,12.73
2018-11-05T01:36:38.063Z,13.13
2018-11-05T01:39:09.464Z,12.27
2018-11-05T01:41:39.712Z,11.67
2018-11-05T01:44:08.935Z,13.57
2018-11-05T01:46:38.154Z,12.90
2018-11-05T01:49:07.396Z,14.43
2018-11-05T01:51:36.722Z,13.60
2018-11-05T01:54:06.026Z,13.22
2018-11-05T01:56:35.157Z,12.50
2018-11-05T01:59:04.354Z,12.10
2018-11-05T02:01:33.527Z,13.63
2018-11-05T02:04:02.712Z,12.58
2018-11-05T02:06:31.846Z,13.73
2018-11-05T02:09:00.983Z,12.85
2018-11-05T02:11:30.110Z,13.20
2018-11-05T02:13:59.339Z,12.65
2018-11-05T02:16:28.481Z,13.57
2018-11-05T02:18:57.700Z,13.20
2018-11-05T02:21:27.494Z,13.16
2018-11-05T02:23:56.654Z,12.50
2018-11-05T02:26:25.776Z,12.30
2018-11-05T02:28:55.034Z,14.93
2018-11-05T02:31:24.257Z,13.10
2018-11-05T02:33:53.621Z,13.43
2018-11-05T02:36:22.705Z,13.60
2018-11-05T02:38:52.338Z,14.77
2018-11-05T02:41:22.413Z,12.90
2018-11-05T02:43:52.418Z,13.55
2018-11-05T02:46:22.462Z,13.20
2018-11-05T02:48:52.466Z,19.25
2018-11-05T02:51:22.407Z,15.40
2018-11-05T02:53:52.558Z,11.57
2018-11-05T02:56:22.670Z,13.93
2018-11-05T02:58:52.643Z,12.10
2018-11-05T03:01:22.716Z,14.87
2018-11-05T03:03:51.924Z,13.43
2018-11-05T03:06:21.080Z,17.00
2018-11-05T03:08:51.468Z,12.77
2018-11-05T03:11:20.610Z,11.88
2018-11-05T03:13:49.814Z,11.03
2018-11-05T03:16:18.979Z,11.93
2018-11-05T03:18:48.215Z,11.20
2018-11-05T03:21:17.389Z,11.43
2018-11-05T03:23:46.594Z,17.33
2018-11-05T03:26:15.857Z,15.55
2018-11-05T03:28:50.586Z,12.30
2018-11-05T03:31:19.881Z,9.83
2018-11-05T03:33:49.055Z,10.07
2018-11-05T03:36:18.190Z,9.27
2018-11-05T03:38:47.330Z,10.37
2018-11-05T03:41:16.434Z,9.30
2018-11-05T03:43:45.564Z,9.60
2018-11-05T03:46:14.779Z,11.93
2018-11-05T03:48:43.889Z,11.30
2018-11-05T03:51:12.949Z,11.03
2018-11-05T03:53:42.142Z,11.38
2018-11-05T03:56:11.435Z,8.75
2018-11-05T03:58:40.570Z,10.13
2018-11-05T04:01:09.754Z,10.60
2018-11-05T04:03:38.901Z,13.97
2018-11-05T04:06:08.084Z,8.75
2018-11-05T04:08:37.278Z,10.85
2018-11-05T04:11:06.558Z,9.90
2018-11-05T04:13:35.706Z,8.17
2018-11-05T04:16:04.915Z,7.70
2018-11-05T04:18:33.898Z,8.50
2018-11-05T04:21:03.027Z,10.47
2018-11-05T04:23:32.150Z,9.00
2018-11-05T04:26:01.222Z,9.53
2018-11-05T04:28:31.161Z,8.63
2018-11-05T04:31:00.324Z,10.50
2018-11-05T04:33:29.546Z,9.75
2018-11-05T04:35:58.655Z,9.23
2018-11-05T04:38:27.803Z,9.03
2018-11-05T04:40:56.955Z,9.30
2018-11-05T04:43:27.227Z,10.30
2018-11-05T04:45:56.399Z,8.45
2018-11-05T04:48:25.586Z,9.30
2018-11-05T04:50:55.733Z,9.27
2018-11-05T04:53:24.870Z,9.00
2018-11-05T04:55:54.035Z,8.73
2018-11-05T04:58:23.799Z,7.55
2018-11-05T05:00:53.773Z,7.17
2018-11-05T05:03:23.876Z,7.45
2018-11-05T05:05:53.739Z,7.25
2018-11-05T05:08:23.742Z,6.95
2018-11-05T05:10:53.807Z,6.65
2018-11-05T05:13:23.876Z,7.40
2018-11-05T05:15:53.933Z,7.55
2018-11-05T05:18:23.846Z,8.75
2018-11-05T05:20:54.060Z,7.03
2018-11-05T05:23:24.044Z,7.25
2018-11-05T05:25:54.067Z,7.85
2018-11-05T05:28:23.966Z,7.35
2018-11-05T05:30:54.009Z,6.00
2018-11-05T05:33:24.003Z,7.40
2018-11-05T05:35:54.138Z,7.30
2018-11-05T05:38:23.998Z,6.20
2018-11-05T05:40:54.251Z,6.62
2018-11-05T05:43:24.062Z,7.80
2018-11-05T05:45:54.042Z,6.70
2018-11-05T05:48:24.136Z,6.72
2018-11-05T05:50:54.187Z,6.60
2018-11-05T05:53:24.569Z,7.10
2018-11-05T05:55:54.298Z,5.50
2018-11-05T05:58:24.192Z,7.53
2018-11-05T06:00:55.502Z,6.92
2018-11-05T06:03:24.698Z,7.40
2018-11-05T06:05:54.406Z,6.37
2018-11-05T06:08:24.297Z,7.28
2018-11-05T06:10:54.430Z,6.70
2018-11-05T06:13:24.412Z,5.95
2018-11-05T06:15:54.480Z,6.25
2018-11-05T06:18:24.385Z,6.62
2018-11-05T06:20:54.529Z,7.03
2018-11-05T06:23:24.513Z,19.25
2018-11-05T06:25:54.601Z,15.25
2018-11-05T06:28:24.616Z,11.35
2018-11-05T06:30:54.551Z,9.83
2018-11-05T06:33:24.675Z,9.90
2018-11-05T06:35:54.697Z,7.90
2018-11-05T06:38:24.710Z,9.38
2018-11-05T06:40:54.605Z,8.65
2018-11-05T06:43:24.662Z,9.48
2018-11-05T06:45:55.113Z,10.10
2018-11-05T06:48:24.754Z,9.18
2018-11-05T06:50:54.780Z,8.55
2018-11-05T06:53:24.713Z,8.50
2018-11-05T06:55:54.858Z,8.95
2018-11-05T06:58:24.786Z,9.53
2018-11-05T07:00:54.847Z,7.70
2018-11-05T07:03:24.865Z,9.15
2018-11-05T07:05:54.856Z,9.78
2018-11-05T07:08:24.828Z,11.80
2018-11-05T07:10:54.899Z,10.13
2018-11-05T07:13:25.035Z,9.05
2018-11-05T07:15:54.910Z,9.75
2018-11-05T07:18:25.057Z,10.95
2018-11-05T07:20:54.974Z,11.38
2018-11-05T07:23:25.070Z,11.10
2018-11-05T07:25:55.110Z,11.05
2018-11-05T07:28:25.062Z,11.10
2018-11-05T07:30:55.010Z,10.48
2018-11-05T07:33:25.224Z,11.70
2018-11-05T07:35:55.134Z,12.37
2018-11-05T07:38:25.153Z,11.90
2018-11-05T07:40:55.153Z,13.13
2018-11-05T07:43:25.217Z,13.18
2018-11-05T07:45:55.254Z,14.07
2018-11-05T07:48:25.225Z,26.02
2018-11-05T07:50:55.314Z,16.15
2018-11-05T07:53:25.272Z,13.90
2018-11-05T07:55:55.326Z,16.93
2018-11-05T07:58:25.338Z,15.95
2018-11-05T08:00:59.870Z,14.03
2018-11-05T08:03:29.882Z,13.40
2018-11-05T08:05:59.093Z,14.30
2018-11-05T08:08:28.265Z,12.60
2018-11-05T08:10:57.391Z,12.60
2018-11-05T08:13:27.466Z,13.33
2018-11-05T08:15:56.630Z,12.83
2018-11-05T08:18:25.823Z,14.10
2018-11-05T08:20:55.615Z,15.03
2018-11-05T08:23:25.713Z,14.30
2018-11-05T08:25:56.668Z,15.55
2018-11-05T08:28:25.842Z,13.17
2018-11-05T08:30:55.650Z,15.40
2018-11-05T08:33:25.690Z,13.68
2018-11-05T08:35:55.723Z,14.75
2018-11-05T08:38:25.854Z,13.32
2018-11-05T08:40:55.898Z,12.25
2018-11-05T08:43:25.978Z,12.43
2018-11-05T08:45:55.948Z,10.82
2018-11-05T08:48:25.971Z,12.03
2018-11-05T08:50:56.086Z,11.50
2018-11-05T08:53:25.941Z,12.55
2018-11-05T08:55:55.989Z,11.35
2018-11-05T08:58:27.004Z,11.75
2018-11-05T09:01:00.255Z,12.03
2018-11-05T09:03:29.434Z,11.40
2018-11-05T09:05:58.562Z,11.80
2018-11-05T09:08:27.638Z,10.97
2018-11-05T09:10:57.081Z,11.20
2018-11-05T09:13:27.267Z,12.43
2018-11-05T09:15:56.444Z,10.77
2018-11-05T09:18:27.347Z,9.70
2018-11-05T09:20:56.556Z,10.57
2018-11-05T09:23:27.416Z,11.18
2018-11-05T09:25:56.606Z,11.93
2018-11-05T09:28:25.838Z,11.67
2018-11-05T09:30:55.006Z,11.63
2018-11-05T09:33:24.179Z,9.63
2018-11-05T09:35:53.337Z,10.17
2018-11-05T09:38:23.783Z,9.23
2018-11-05T09:40:52.985Z,9.90
2018-11-05T09:43:22.143Z,9.80
2018-11-05T09:45:51.227Z,11.12
2018-11-05T09:48:20.445Z,8.40
2018-11-05T09:50:49.854Z,8.97
2018-11-05T09:53:18.928Z,8.53
2018-11-05T09:55:48.063Z,8.40
2018-11-05T09:58:17.278Z,7.73
2018-11-05T10:00:46.397Z,10.23
2018-11-05T10:03:16.740Z,8.10
2018-11-05T10:05:45.883Z,9.05
2018-11-05T10:08:16.012Z,8.73
2018-11-05T10:10:45.190Z,8.48
2018-11-05T10:13:14.325Z,10.10
2018-11-05T10:15:43.455Z,9.80
2018-11-05T10:18:12.651Z,10.03
2018-11-05T10:20:41.766Z,9.40
2018-11-05T10:23:10.938Z,10.35
2018-11-05T10:25:39.997Z,9.45
2018-11-05T10:28:09.641Z,9.93
2018-11-05T10:30:38.858Z,9.90
2018-11-05T10:33:08.091Z,9.50
2018-11-05T10:35:42.424Z,11.38
2018-11-05T10:38:11.674Z,14.40
2018-11-05T10:40:40.806Z,12.40
2018-11-05T10:43:09.907Z,11.28
2018-11-05T10:45:39.125Z,10.57
2018-11-05T10:48:08.208Z,11.53
2018-11-05T10:50:37.440Z,11.60
2018-11-05T10:53:07.494Z,11.15
2018-11-05T10:55:36.706Z,9.90
2018-11-05T10:58:05.899Z,9.40
2018-11-05T11:00:41.383Z,10.20
2018-11-05T11:03:18.819Z,10.80
2018-11-05T11:05:47.982Z,9.90
2018-11-05T11:08:17.159Z,10.30
2018-11-05T11:10:46.331Z,10.03
2018-11-05T11:13:15.452Z,9.43
2018-11-05T11:15:44.598Z,9.73
2018-11-05T11:18:13.791Z,8.40
2018-11-05T11:20:43.014Z,9.90
2018-11-05T11:23:13.419Z,8.40
2018-11-05T11:25:42.579Z,10.98
2018-11-05T11:28:11.874Z,9.70
2018-11-05T11:30:41.045Z,7.40
2018-11-05T11:33:10.202Z,7.47
2018-11-05T11:35:39.335Z,7.90
2018-11-05T11:38:08.451Z,8.30
2018-11-05T11:40:37.583Z,7.27
2018-11-05T11:43:06.795Z,10.13
2018-11-05T11:45:35.935Z,9.23
2018-11-05T11:48:05.373Z,10.23
2018-11-05T11:50:34.522Z,8.17
2018-11-05T11:53:03.892Z,9.98
2018-11-05T11:55:33.010Z,9.10
2018-11-05T11:58:02.193Z,8.40
2018-11-05T12:00:31.394Z,9.30
2018-11-05T12:03:00.487Z,8.60
2018-11-05T12:05:29.866Z,8.10
2018-11-05T12:07:58.805Z,9.03
2018-11-05T12:10:28.963Z,8.03
2018-11-05T12:12:58.344Z,8.63
2018-11-05T12:15:27.435Z,8.57
2018-11-05T12:17:56.645Z,8.57
2018-11-05T12:20:25.872Z,8.13
2018-11-05T12:22:55.114Z,9.37
2018-11-05T12:25:24.257Z,8.57
2018-11-05T12:27:53.437Z,8.93
2018-11-05T12:30:23.655Z,8.77
2018-11-05T12:32:53.974Z,8.90
2018-11-05T12:35:23.127Z,8.43
2018-11-05T12:37:53.206Z,9.17
2018-11-05T12:40:22.923Z,10.03
2018-11-05T12:42:52.420Z,8.60
2018-11-05T12:45:21.622Z,8.78
2018-11-05T12:47:52.041Z,8.53
2018-11-05T12:50:22.424Z,9.23
2018-11-05T12:52:52.718Z,10.30
2018-11-05T12:55:21.958Z,9.33
2018-11-05T12:57:51.102Z,9.70
2018-11-05T13:00:22.170Z,8.20
2018-11-05T13:02:57.697Z,9.83
2018-11-05T13:05:28.338Z,9.73
2018-11-05T13:07:57.574Z,11.73
2018-11-05T13:10:27.334Z,9.83
2018-11-05T13:12:56.555Z,10.33
2018-11-05T13:15:25.747Z,10.80
2018-11-05T13:17:54.829Z,10.07
2018-11-05T13:20:24.466Z,9.97
2018-11-05T13:22:53.689Z,10.30
2018-11-05T13:25:22.799Z,10.27
2018-11-05T13:27:52.386Z,11.23
2018-11-05T13:30:21.569Z,10.57
2018-11-05T13:32:50.754Z,10.63
2018-11-05T13:35:21.886Z,10.80
2018-11-05T13:37:51.445Z,10.50
2018-11-05T13:40:21.478Z,10.50
2018-11-05T13:42:51.282Z,11.40
2018-11-05T13:45:20.959Z,10.70
2018-11-05T13:47:50.961Z,11.37
2018-11-05T13:50:19.447Z,12.70
2018-11-05T13:52:48.391Z,12.33
2018-11-05T13:55:18.031Z,14.03
2018-11-05T13:57:48.307Z,14.10
2018-11-05T14:00:19.523Z,12.57
2018-11-05T14:02:49.097Z,13.40
2018-11-05T14:05:18.236Z,12.60
2018-11-05T14:07:47.443Z,12.10
2018-11-05T14:10:21.210Z,13.72
2018-11-05T14:12:50.944Z,18.47
2018-11-05T14:15:20.526Z,12.70
2018-11-05T14:17:49.732Z,10.80
2018-11-05T14:20:20.164Z,10.93
2018-11-05T14:22:49.332Z,12.20
2018-11-05T14:25:19.543Z,13.27
2018-11-05T14:27:50.232Z,12.27
2018-11-05T14:30:19.198Z,12.43
2018-11-05T14:32:49.356Z,12.33
2018-11-05T14:35:18.465Z,13.37
2018-11-05T14:37:47.691Z,11.80
2018-11-05T14:40:17.674Z,11.80
2018-11-05T14:42:46.868Z,10.28
2018-11-05T14:45:17.418Z,12.87
2018-11-05T14:47:47.010Z,11.85
2018-11-05T14:50:18.054Z,11.65
2018-11-05T14:52:47.229Z,12.20
2018-11-05T14:55:18.071Z,10.63
2018-11-05T14:57:48.326Z,11.22
2018-11-05T15:00:25.710Z,11.13
2018-11-05T15:02:55.619Z,11.67
2018-11-05T15:05:24.856Z,41.40
2018-11-05T15:07:54.112Z,15.00
2018-11-05T15:10:24.600Z,14.63
2018-11-05T15:12:53.842Z,11.80
2018-11-05T15:15:23.370Z,12.20
2018-11-05T15:17:52.609Z,11.68
2018-11-05T15:20:22.968Z,11.67
2018-11-05T15:22:52.142Z,11.10
2018-11-05T15:25:21.732Z,12.03
2018-11-05T15:27:50.870Z,10.87
2018-11-05T15:30:22.228Z,12.03
2018-11-05T15:32:51.532Z,11.23
2018-11-05T15:35:20.653Z,14.40
2018-11-05T15:37:51.121Z,19.97
2018-11-05T15:40:21.346Z,13.57
2018-11-05T15:42:50.596Z,12.70
2018-11-05T15:45:21.073Z,11.10
2018-11-05T15:47:50.256Z,11.03
2018-11-05T15:50:20.393Z,9.80
2018-11-05T15:52:50.091Z,9.97
2018-11-05T15:55:18.796Z,8.60
2018-11-05T15:57:48.031Z,8.17
2018-11-05T16:00:18.430Z,9.53
2018-11-05T16:02:54.146Z,8.25
2018-11-05T16:05:23.298Z,7.97
2018-11-05T16:07:52.451Z,7.80
2018-11-05T16:10:23.861Z,8.80
2018-11-05T16:12:52.959Z,8.50
2018-11-05T16:15:22.128Z,8.17
2018-11-05T16:17:51.315Z,7.60
2018-11-05T16:20:21.766Z,8.03
2018-11-05T16:22:51.800Z,7.08
2018-11-05T16:25:20.979Z,7.20
2018-11-05T16:27:50.153Z,6.97
2018-11-05T16:30:20.535Z,7.23
2018-11-05T16:32:50.340Z,6.27
2018-11-05T16:35:19.565Z,5.77
2018-11-05T16:37:48.624Z,6.03
2018-11-05T16:40:18.660Z,5.67
2018-11-05T16:42:48.881Z,5.70
2018-11-05T16:45:18.202Z,5.73
2018-11-05T16:47:47.812Z,16.93
2018-11-05T16:50:20.501Z,6.80
2018-11-05T16:52:49.614Z,4.93
2018-11-05T16:55:18.730Z,6.27
2018-11-05T16:57:47.942Z,5.50
2018-11-05T17:00:17.405Z,5.60
2018-11-05T17:02:47.402Z,4.95
2018-11-05T17:05:16.264Z,4.37
2018-11-05T17:07:45.502Z,4.93
2018-11-05T17:10:15.226Z,8.13
2018-11-05T17:12:44.946Z,6.00
2018-11-05T17:15:15.267Z,4.40
2018-11-05T17:17:44.870Z,4.57
2018-11-05T17:20:15.514Z,4.53
2018-11-05T17:22:44.882Z,3.17
2018-11-05T17:25:14.429Z,3.30
2018-11-05T17:27:44.341Z,3.60
2018-11-05T17:30:19.359Z,3.12
2018-11-05T17:32:48.516Z,3.47
2018-11-05T17:35:18.134Z,2.63
2018-11-05T17:37:47.699Z,2.33
2018-11-05T17:40:18.289Z,2.50
2018-11-05T17:42:47.466Z,2.43
2018-11-05T17:45:17.666Z,4.07
2018-11-05T17:47:47.170Z,3.47
2018-11-05T17:50:18.794Z,2.80
2018-11-05T17:52:47.935Z,2.77
2018-11-05T17:55:17.107Z,6.65
2018-11-05T17:57:47.380Z,2.60
2018-11-05T18:00:17.786Z,2.20
2018-11-05T18:02:46.981Z,1.70
2018-11-05T18:05:16.157Z,1.60
2018-11-05T18:07:45.470Z,2.80
2018-11-05T18:10:14.673Z,3.40
2018-11-05T18:12:43.866Z,3.70
2018-11-05T18:15:13.459Z,3.90
2018-11-05T18:17:43.430Z,3.10
2018-11-05T18:20:14.967Z,3.37
2018-11-05T18:22:44.048Z,3.47
2018-11-05T18:25:15.651Z,2.97
2018-11-05T18:27:45.086Z,2.80
2018-11-05T18:30:14.768Z,2.50
2018-11-05T18:32:43.937Z,3.03
2018-11-05T18:35:14.470Z,3.23
2018-11-05T18:37:45.705Z,3.03
2018-11-05T18:40:15.776Z,5.27
2018-11-05T18:42:45.248Z,6.00
2018-11-05T18:45:14.539Z,7.13
2018-11-05T18:47:43.794Z,24.13
2018-11-05T18:50:14.475Z,5.90
2018-11-05T18:52:43.834Z,6.73
2018-11-05T18:55:14.161Z,5.90
2018-11-05T18:57:43.271Z,3.70
2018-11-05T19:00:19.345Z,3.10
2018-11-05T19:02:49.152Z,3.70
2018-11-05T19:05:18.752Z,2.57
2018-11-05T19:07:48.146Z,3.40
2018-11-05T19:10:17.325Z,2.90
2018-11-05T19:12:46.655Z,2.60
2018-11-05T19:15:16.102Z,2.50
2018-11-05T19:17:46.182Z,3.73
2018-11-05T19:20:15.490Z,2.60
2018-11-05T19:22:45.331Z,2.90
2018-11-05T19:25:15.156Z,2.90
2018-11-05T19:27:44.336Z,2.60
2018-11-05T19:30:16.658Z,2.90
2018-11-05T19:32:46.194Z,2.73
2018-11-05T19:35:15.314Z,2.60
2018-11-05T19:37:45.775Z,2.87
2018-11-05T19:40:15.763Z,3.00
2018-11-05T19:42:45.891Z,3.30
2018-11-05T19:45:16.847Z,2.50
2018-11-05T19:47:46.034Z,3.10
2018-11-05T19:50:16.667Z,2.40
2018-11-05T19:52:46.585Z,2.60
2018-11-05T19:55:16.710Z,3.33
2018-11-05T19:57:46.622Z,3.60
2018-11-05T20:00:24.860Z,3.80
2018-11-05T20:02:54.476Z,4.92
2018-11-05T20:05:23.730Z,4.93
2018-11-05T20:07:53.442Z,3.85
2018-11-05T20:10:22.702Z,3.20
2018-11-05T20:12:51.853Z,2.80
2018-11-05T20:15:20.940Z,2.30
2018-11-05T20:17:51.194Z,2.60
2018-11-05T20:20:21.721Z,2.00
2018-11-05T20:22:50.999Z,2.03
2018-11-05T20:25:20.146Z,2.40
2018-11-05T20:27:49.206Z,1.85
2018-11-05T20:30:20.062Z,1.73
2018-11-05T20:32:50.268Z,1.77
2018-11-05T20:35:19.122Z,2.07
2018-11-05T20:37:48.270Z,2.40
2018-11-05T20:40:18.651Z,1.70
2018-11-05T20:42:48.836Z,2.20
2018-11-05T20:45:18.893Z,2.37
2018-11-05T20:47:48.041Z,2.10
2018-11-05T20:50:17.881Z,2.37
2018-11-05T20:52:47.069Z,2.10
2018-11-05T20:55:17.267Z,2.13
2018-11-05T20:57:46.500Z,2.20
2018-11-05T21:00:17.036Z,4.80
2018-11-05T21:02:46.202Z,2.77
2018-11-05T21:05:15.362Z,1.77
2018-11-05T21:07:44.837Z,1.80
2018-11-05T21:10:14.773Z,1.47
2018-11-05T21:12:44.472Z,1.40
2018-11-05T21:15:15.847Z,1.70
2018-11-05T21:17:46.490Z,1.87
2018-11-05T21:20:15.959Z,1.73
2018-11-05T21:22:45.487Z,1.43
2018-11-05T21:25:14.492Z,1.77
2018-11-05T21:27:44.190Z,1.53
2018-11-05T21:30:15.839Z,1.60
2018-11-05T21:32:44.972Z,1.47
2018-11-05T21:35:15.698Z,1.60
2018-11-05T21:37:44.845Z,1.50
2018-11-05T21:40:15.434Z,1.50
2018-11-05T21:42:44.566Z,1.40
2018-11-05T21:45:14.668Z,2.40
2018-11-05T21:47:44.561Z,3.10
2018-11-05T21:50:15.479Z,1.73
2018-11-05T21:52:45.018Z,1.35
2018-11-05T21:55:14.151Z,2.03
2018-11-05T21:57:44.651Z,1.67
2018-11-05T22:00:16.005Z,1.60
2018-11-05T22:02:50.484Z,1.83
2018-11-05T22:05:19.624Z,1.80
2018-11-05T22:07:48.976Z,2.03
2018-11-05T22:10:18.105Z,1.65
2018-11-05T22:12:47.645Z,1.52
2018-11-05T22:15:16.777Z,1.73
2018-11-05T22:17:47.226Z,1.87
2018-11-05T22:20:16.481Z,1.50
2018-11-05T22:22:45.760Z,1.70
2018-11-05T22:25:14.861Z,1.40
2018-11-05T22:27:44.043Z,1.40
2018-11-05T22:30:13.351Z,1.67
2018-11-05T22:32:42.538Z,1.83
2018-11-05T22:35:11.767Z,1.63
2018-11-05T22:37:41.006Z,1.80
2018-11-05T22:40:15.000Z,1.77
2018-11-05T22:42:44.202Z,1.60
2018-11-05T22:45:14.534Z,1.73
2018-11-05T22:47:44.450Z,1.77
2018-11-05T22:50:13.769Z,1.80
2018-11-05T22:52:43.175Z,1.80
2018-11-05T22:55:12.809Z,1.67
2018-11-05T22:57:42.026Z,1.70
2018-11-05T23:00:18.758Z,1.90
2018-11-05T23:02:53.223Z,2.27
2018-11-05T23:05:22.513Z,1.95
2018-11-05T23:07:52.804Z,2.10
2018-11-05T23:10:22.217Z,1.80
2018-11-05T23:12:51.507Z,1.82
2018-11-05T23:15:21.114Z,1.50
2018-11-05T23:17:51.109Z,1.92
2018-11-05T23:20:20.359Z,2.13
2018-11-05T23:22:49.571Z,1.60
2018-11-05T23:25:18.651Z,2.27
2018-11-05T23:27:47.890Z,1.60
2018-11-05T23:30:17.026Z,1.73
2018-11-05T23:32:46.521Z,2.10
2018-11-05T23:35:15.741Z,1.70
2018-11-05T23:37:44.924Z,1.40
2018-11-05T23:40:14.107Z,1.20
2018-11-05T23:42:43.290Z,1.80
2018-11-05T23:45:14.010Z,1.50
2018-11-05T23:47:43.283Z,1.67
2018-11-05T23:50:12.709Z,1.93
2018-11-05T23:52:41.890Z,1.72
2018-11-05T23:55:11.640Z,2.03
2018-11-05T23:57:41.041Z,2.22
